East Corinth, VT

2:51 PM EST on November 20, 2019 (GMT -0500)
Route 25, Topsham | | Change Station

Elev 1375 ft 44.13 °N, 72.32 °W | Updated 4 seconds ago

Snow
Snow
33.3 °F
Feels Like 33 °F
N
0.9
Wind Variable Wind from NNE
Gusts 2.5 mph

Today
High -- | Low -- °F
--% Chance of Precip.
Yesterday
High -- | Low -- °F
Precip. -- in
Pressure 29.98 in
Visibility 2.0 miles
Clouds Overcast 1500 ft
Windchill 33 °F
Dew Point 13 °F
Humidity 43%
Rainfall 0.00 in
Snow Depth Not available.
6:50 AM 4:18 PM
Last Quarter, 39% visible
SPECI KMPV 201900Z AUTO 33007KT 2SM -SN BR OVC015 M01/M02 A2998 RMK AO2 P0000 T10061017
Pressure 29.98 in
Visibility 2.0 miles
Clouds Overcast 1500 ft
Windchill 33 °F
Dew Point 13 °F
Humidity 43%
Rainfall 0.00 in
Snow Depth Not available.
6:50 AM 4:18 PM
Last Quarter, 39% visible
SPECI KMPV 201900Z AUTO 33007KT 2SM -SN BR OVC015 M01/M02 A2998 RMK AO2 P0000 T10061017

Get Severe Weather Alerts

Thanks for signing up!

Be on the lookout for a verification email in your inbox.

You'll start receiving the daily forecast at 6 AM.

×

10-Day Weather Forecast

Almanac

Astronomy

Nov. 20, 2019 Rise Set
Actual Time
Civil Twilight
Nautical Twilight
Astronomical Twilight
Moon
Length of Visible Light
Length of Day
Tomorrow will be .
, % of the Moon is Illuminated

Today's Extremes

State Highs State Lows

Community

WunderPhotos

Category 6

Welcome to Category 6. This is the collective home for Weather Underground's featured writeups by Dr. Jeff Masters (right), Bob Henson (left), Chris Burt, and other regular contributors.

Nearby

Air Quality

  Air Quality AQ Index Pollutant
Not available.

Snow Depth

Station Depth Elevation

Earthquake Activity

City Distance Mag. Time & Date
Minimum magnitude displayed is 2.5.

Coastal Water Temperatures

Place Temperature

Stations

Nearby Weather Stations

Station Location Temp. Windchill Dew Point Humidity Wind Precip. Elev Updated Type
                   

Watches & Warnings

There are currently no watches in effect.